Weather at Aerotortuguero Airport

Public forecast

Using degrees Celsius for public forecast. Weather courtesy of forecast.io.

Closest aviation weather report (METAR) to Aerotortuguero Airport

Closest report is Tobias Bolanos International Airport, 41.9 nm (77.6 km) SW. Retrieved 2020/12/01 17:00 UTC (12 minutes ago):

MRPV 011700Z 12012KT 9999 FEW025 BKN100 25/17 A3005 NOSIG

Closest aviation forecast (TAF) to Aerotortuguero Airport

Closest forecast is Tobias Bolanos International Airport, 41.9 nm (77.6 km) SW. Retrieved 2020/12/01 12:06 UTC (5 hours ago):

TAF MRPV 011100Z 0112/0212 10010KT 9999 FEW030 BKN120 TX27/0119Z TN18/0211Z TEMPO 0112/0118 11012G22KT TEMPO 0119/0124 RA